Time;durP1;ratioP1;P1;durP2;ratioP2;P2;SDS_P1;SDS_P2;PMS_P1;PMS_P2;Temp;Humidity;BMP_temperature;BMP_pressure;BME280_temperature;BME280_humidity;BME280_pressure;Samples;Min_cycle;Max_cycle;Signal;HPM_P1;HPM_P2
2021/04/15 00:01:47;;;;;;;4.77;3.77;;;1.90;99.90;;;;;;5026140;28;20779;-80
2021/04/15 00:04:14;;;;;;;6.57;3.80;;;1.80;99.90;;;;;;5032860;28;20534;-80
2021/04/15 00:06:41;;;;;;;4.93;3.60;;;1.90;99.90;;;;;;5031656;28;20319;-80
2021/04/15 00:09:11;;;;;;;5.93;3.70;;;1.90;99.90;;;;;;5032741;28;20293;-80
2021/04/15 00:11:39;;;;;;;5.60;3.40;;;1.80;99.90;;;;;;5032765;28;20284;-80
2021/04/15 00:14:08;;;;;;;5.03;3.47;;;1.80;99.90;;;;;;5013383;28;20278;-80
2021/04/15 00:16:34;;;;;;;5.87;3.33;;;1.80;99.90;;;;;;5038357;28;20244;-80
2021/04/15 00:19:02;;;;;;;6.47;3.83;;;1.80;99.90;;;;;;5045132;28;20672;-80
2021/04/15 00:21:29;;;;;;;5.87;3.40;;;1.80;99.90;;;;;;5052168;28;20311;-80
2021/04/15 00:23:56;;;;;;;5.60;2.90;;;1.90;99.90;;;;;;5044737;28;20193;-80
2021/04/15 00:26:24;;;;;;;3.73;2.80;;;1.90;99.90;;;;;;5030961;28;20292;-80
2021/04/15 00:28:52;;;;;;;7.87;2.90;;;1.80;99.90;;;;;;5026856;28;20283;-79
2021/04/15 00:31:19;;;;;;;4.10;2.80;;;1.90;99.90;;;;;;5036269;28;20291;-80
2021/04/15 00:33:46;;;;;;;3.43;2.70;;;1.70;99.90;;;;;;5020654;28;20212;-80
2021/04/15 00:36:12;;;;;;;3.90;2.53;;;1.70;99.90;;;;;;5030741;28;20229;-80
2021/04/15 00:38:40;;;;;;;4.47;2.63;;;1.70;99.90;;;;;;5032361;28;20201;-79
2021/04/15 00:41:09;;;;;;;4.20;2.80;;;1.70;99.90;;;;;;5037899;28;20252;-79
2021/04/15 00:43:39;;;;;;;6.17;3.23;;;1.60;99.90;;;;;;5035917;28;20283;-79
2021/04/15 00:46:44;;;;;;;5.33;2.93;;;1.70;99.90;;;;;;5028464;28;20299;-79
2021/04/15 00:49:14;;;;;;;4.47;2.87;;;1.70;99.90;;;;;;5021227;28;20212;-79
2021/04/15 00:51:44;;;;;;;7.47;2.63;;;1.70;99.90;;;;;;5036072;28;20287;-80
2021/04/15 00:54:16;;;;;;;5.37;2.83;;;1.60;99.90;;;;;;5035349;28;20200;-79
2021/04/15 00:56:43;;;;;;;5.20;2.90;;;1.60;99.90;;;;;;5031580;28;20248;-79
2021/04/15 00:59:09;;;;;;;5.03;2.87;;;1.60;99.90;;;;;;5038886;28;20562;-79
2021/04/15 01:01:36;;;;;;;4.87;2.90;;;1.60;99.90;;;;;;5051389;28;20586;-79
2021/04/15 01:04:03;;;;;;;4.50;2.90;;;1.50;99.90;;;;;;5030084;28;20236;-79
2021/04/15 01:06:30;;;;;;;6.00;3.17;;;1.50;99.90;;;;;;5033040;28;20224;-80
2021/04/15 01:08:59;;;;;;;4.40;2.70;;;1.40;99.90;;;;;;5038801;28;20251;-80
2021/04/15 01:11:39;;;;;;;5.17;2.60;;;1.40;99.90;;;;;;5028796;28;20211;-80
2021/04/15 01:14:14;;;;;;;5.63;2.73;;;1.50;99.90;;;;;;5019383;28;20367;-80
2021/04/15 01:16:51;;;;;;;4.70;2.53;;;1.50;99.90;;;;;;5028258;28;20203;-80
2021/04/15 01:19:34;;;;;;;6.07;2.60;;;1.30;99.90;;;;;;5031953;28;20759;-79
2021/04/15 01:22:14;;;;;;;7.07;2.93;;;1.30;99.90;;;;;;5020194;28;20655;-79
2021/04/15 01:24:45;;;;;;;4.77;2.80;;;1.20;99.90;;;;;;5011594;28;20268;-80
2021/04/15 01:27:35;;;;;;;5.23;2.63;;;1.20;99.90;;;;;;5023774;28;20205;-79
2021/04/15 01:30:12;;;;;;;4.13;2.37;;;1.40;99.90;;;;;;5011425;28;20288;-80
2021/04/15 01:32:49;;;;;;;5.63;2.77;;;1.40;99.90;;;;;;5046791;28;20286;-80
2021/04/15 01:35:21;;;;;;;4.60;2.50;;;1.40;99.90;;;;;;5048844;28;20286;-80
2021/04/15 01:37:51;;;;;;;5.70;2.57;;;1.60;99.90;;;;;;5017906;28;20241;-80
2021/04/15 01:40:22;;;;;;;4.27;2.40;;;1.70;99.90;;;;;;5051396;28;20391;-79
2021/04/15 01:42:55;;;;;;;5.03;2.53;;;1.70;99.90;;;;;;5035608;28;20414;-80
2021/04/15 01:45:22;;;;;;;4.23;2.50;;;1.60;99.90;;;;;;5017932;28;20631;-79
2021/04/15 01:47:53;;;;;;;4.87;2.80;;;1.50;99.90;;;;;;5030614;28;20292;-80
2021/04/15 01:50:23;;;;;;;4.10;2.63;;;1.40;99.90;;;;;;5026642;28;20289;-79
2021/04/15 01:52:54;;;;;;;5.37;2.63;;;1.50;99.90;;;;;;5021432;28;20287;-79
2021/04/15 01:55:27;;;;;;;3.90;2.77;;;1.50;99.90;;;;;;5030931;28;20235;-80
2021/04/15 01:58:03;;;;;;;5.00;2.80;;;1.50;99.90;;;;;;5032190;28;20690;-79
2021/04/15 02:00:32;;;;;;;5.50;2.87;;;1.50;99.90;;;;;;5047545;28;20904;-80
2021/04/15 02:03:03;;;;;;;3.60;2.60;;;1.40;99.90;;;;;;5030999;28;20292;-79
2021/04/15 02:05:33;;;;;;;5.57;2.80;;;1.30;99.90;;;;;;5030909;28;20197;-80
2021/04/15 02:08:05;;;;;;;5.70;2.50;;;1.40;99.90;;;;;;5030748;28;20255;-80
2021/04/15 02:10:34;;;;;;;4.80;3.07;;;1.40;99.90;;;;;;5016226;28;20332;-78
2021/04/15 02:13:02;;;;;;;7.77;3.03;;;1.30;99.90;;;;;;5030468;28;20217;-80
2021/04/15 02:15:33;;;;;;;5.60;2.90;;;1.30;99.90;;;;;;5027800;28;20640;-79
2021/04/15 02:18:03;;;;;;;4.10;2.80;;;1.40;99.90;;;;;;5021377;28;20243;-79
2021/04/15 02:20:30;;;;;;;6.63;2.97;;;1.30;99.90;;;;;;5030709;28;20597;-79
2021/04/15 02:23:09;;;;;;;4.60;3.20;;;1.30;99.90;;;;;;5035114;28;20228;-79
2021/04/15 02:25:42;;;;;;;5.47;2.87;;;1.30;99.90;;;;;;5012655;28;20237;-79
2021/04/15 02:28:15;;;;;;;4.03;2.80;;;1.20;99.90;;;;;;5030794;28;20637;-79
2021/04/15 02:30:45;;;;;;;6.20;2.93;;;1.20;99.90;;;;;;5033582;28;20231;-79
2021/04/15 02:33:18;;;;;;;5.03;2.83;;;1.10;99.90;;;;;;5015296;28;20615;-80
2021/04/15 02:35:47;;;;;;;5.37;3.07;;;1.00;99.90;;;;;;5049080;28;20438;-79
2021/04/15 02:38:15;;;;;;;5.00;3.13;;;0.90;99.90;;;;;;5052533;28;20297;-79
2021/04/15 02:40:47;;;;;;;3.97;3.07;;;0.80;99.90;;;;;;5024377;28;20244;-80
2021/04/15 02:43:19;;;;;;;4.43;2.87;;;0.80;99.90;;;;;;5027721;28;20228;-80
2021/04/15 02:45:51;;;;;;;4.90;3.00;;;0.90;99.90;;;;;;5016048;28;20637;-79
2021/04/15 02:48:24;;;;;;;6.67;3.40;;;0.90;99.90;;;;;;5018134;28;20707;-79
2021/04/15 02:50:56;;;;;;;4.70;3.13;;;0.90;99.90;;;;;;5041752;28;20200;-79
2021/04/15 02:53:27;;;;;;;4.97;3.13;;;0.90;99.90;;;;;;5052341;28;20203;-79
2021/04/15 02:55:57;;;;;;;6.57;3.13;;;0.80;99.90;;;;;;5030546;28;20286;-79
2021/04/15 02:58:28;;;;;;;4.97;3.20;;;0.70;99.90;;;;;;5014210;28;20220;-79
2021/04/15 03:00:57;;;;;;;4.23;3.03;;;0.60;99.90;;;;;;5014161;28;20229;-80
2021/04/15 03:03:28;;;;;;;5.13;3.37;;;0.60;99.90;;;;;;5014201;28;20800;-79
2021/04/15 03:05:59;;;;;;;5.97;3.70;;;0.50;99.90;;;;;;5014490;28;20578;-80
2021/04/15 03:08:27;;;;;;;4.47;3.07;;;0.50;99.90;;;;;;5014901;28;20741;-79
2021/04/15 03:10:58;;;;;;;5.97;3.27;;;0.40;99.90;;;;;;5014409;28;20228;-79
2021/04/15 03:13:33;;;;;;;4.80;3.70;;;0.40;99.90;;;;;;5032511;28;20377;-79
2021/04/15 03:16:04;;;;;;;6.53;3.87;;;0.60;99.90;;;;;;5031010;28;20229;-79
2021/04/15 03:18:38;;;;;;;5.27;3.60;;;0.60;99.90;;;;;;5033226;28;20740;-79
2021/04/15 03:21:10;;;;;;;6.47;3.80;;;0.60;99.90;;;;;;5028751;28;20308;-79
2021/04/15 03:23:46;;;;;;;6.33;3.83;;;0.50;99.90;;;;;;5013673;28;20213;-79
2021/04/15 03:26:23;;;;;;;4.87;3.30;;;0.50;99.90;;;;;;5019528;28;20236;-78
2021/04/15 03:29:03;;;;;;;8.60;3.63;;;0.60;99.90;;;;;;5053681;28;20601;-79
2021/04/15 03:31:32;;;;;;;4.67;3.53;;;0.70;99.90;;;;;;5053653;28;20307;-78
2021/04/15 03:34:05;;;;;;;5.10;3.67;;;0.50;99.90;;;;;;5053501;28;20290;-78
2021/04/15 03:36:36;;;;;;;7.73;3.70;;;0.50;99.90;;;;;;5045359;28;20676;-78
2021/04/15 03:39:07;;;;;;;6.37;3.40;;;0.50;99.90;;;;;;5032993;28;20287;-78
2021/04/15 03:41:39;;;;;;;5.83;3.67;;;0.50;99.90;;;;;;5034018;28;20299;-79
2021/04/15 03:44:08;;;;;;;7.03;3.23;;;0.50;99.90;;;;;;5020172;28;21099;-78
2021/04/15 03:46:40;;;;;;;6.50;3.37;;;0.50;99.90;;;;;;5024353;28;20236;-78
2021/04/15 03:49:12;;;;;;;7.90;3.70;;;0.60;99.90;;;;;;5013545;28;20251;-79
2021/04/15 03:51:43;;;;;;;6.20;3.83;;;0.50;99.90;;;;;;5027874;28;20224;-78
2021/04/15 03:54:12;;;;;;;6.83;3.70;;;0.40;99.90;;;;;;5032781;28;20203;-78
2021/04/15 03:56:43;;;;;;;7.40;3.47;;;0.30;99.90;;;;;;5036733;28;20296;-79
2021/04/15 03:59:14;;;;;;;6.53;3.30;;;0.20;99.90;;;;;;5033174;28;20291;-78
2021/04/15 04:01:46;;;;;;;5.90;3.70;;;0.10;99.90;;;;;;5033285;28;20228;-78
2021/04/15 04:04:29;;;;;;;7.57;3.80;;;0.00;99.90;;;;;;5032797;28;20239;-78
2021/04/15 04:06:58;;;;;;;7.07;4.00;;;0.00;99.90;;;;;;5033091;28;20208;-78
2021/04/15 04:09:30;;;;;;;7.50;4.27;;;0.10;99.90;;;;;;5032982;28;20736;-78
2021/04/15 04:11:59;;;;;;;7.87;4.27;;;0.10;99.90;;;;;;5029203;28;20280;-78
2021/04/15 04:14:32;;;;;;;8.37;4.27;;;0.10;99.90;;;;;;5013259;28;20216;-78
2021/04/15 04:17:02;;;;;;;6.57;4.33;;;0.10;99.90;;;;;;5014202;28;20722;-78
2021/04/15 04:19:36;;;;;;;7.07;4.37;;;0.00;99.90;;;;;;5027836;28;20261;-78
2021/04/15 04:22:14;;;;;;;7.67;3.93;;;0.00;99.90;;;;;;5021447;28;20406;-78
2021/04/15 04:24:45;;;;;;;5.70;4.03;;;0.00;99.90;;;;;;5032290;28;20702;-78
2021/04/15 04:27:19;;;;;;;8.90;4.20;;;0.10;99.90;;;;;;5018771;28;20188;-78
2021/04/15 04:29:52;;;;;;;5.40;4.17;;;0.20;99.90;;;;;;5018389;28;20287;-79
2021/04/15 04:32:22;;;;;;;7.23;4.30;;;0.10;99.90;;;;;;5012669;28;20731;-78
2021/04/15 04:34:52;;;;;;;9.67;4.60;;;0.10;99.90;;;;;;5012709;28;20194;-77
2021/04/15 04:37:19;;;;;;;6.70;4.43;;;0.00;99.90;;;;;;5021494;28;20235;-78
2021/04/15 04:39:46;;;;;;;7.13;4.90;;;-0.10;99.90;;;;;;5031842;28;20284;-79
2021/04/15 04:42:23;;;;;;;8.53;4.73;;;-0.10;99.90;;;;;;5009030;28;20383;-79
2021/04/15 04:44:53;;;;;;;9.20;4.33;;;-0.10;99.90;;;;;;5031001;28;20206;-78
2021/04/15 04:47:32;;;;;;;7.77;5.07;;;-0.10;99.90;;;;;;5032142;28;20235;-79
2021/04/15 04:50:05;;;;;;;9.47;4.70;;;0.00;99.90;;;;;;5038433;28;20279;-78
2021/04/15 04:52:33;;;;;;;8.50;4.40;;;-0.10;99.90;;;;;;5031413;28;20239;-78
2021/04/15 04:55:00;;;;;;;7.97;4.17;;;-0.10;99.90;;;;;;5016033;28;20271;-78
2021/04/15 04:57:34;;;;;;;8.63;4.30;;;-0.10;99.90;;;;;;5011693;28;20245;-78
2021/04/15 05:00:04;;;;;;;9.80;4.57;;;-0.10;99.90;;;;;;5022044;28;20196;-78
2021/04/15 05:02:31;;;;;;;9.30;4.30;;;-0.10;99.90;;;;;;5013906;28;20249;-78
2021/04/15 05:05:08;;;;;;;8.47;4.50;;;-0.20;99.90;;;;;;5046321;28;20200;-78
2021/04/15 05:07:37;;;;;;;7.07;4.47;;;-0.20;99.90;;;;;;5051660;28;20214;-78
2021/04/15 05:10:05;;;;;;;8.50;4.70;;;-0.30;99.90;;;;;;5034625;28;20623;-77
2021/04/15 05:12:34;;;;;;;10.50;4.40;;;-0.20;99.90;;;;;;5017254;28;20244;-77
2021/04/15 05:15:01;;;;;;;9.53;4.43;;;-0.20;99.90;;;;;;5020781;28;20284;-78
2021/04/15 05:17:31;;;;;;;6.97;4.17;;;-0.10;99.90;;;;;;5014305;28;20649;-78
2021/04/15 05:20:00;;;;;;;8.70;4.03;;;-0.10;99.90;;;;;;5034776;28;20239;-77
2021/04/15 05:22:32;;;;;;;6.87;4.07;;;-0.10;99.90;;;;;;5023592;28;20668;-77
2021/04/15 05:25:03;;;;;;;7.00;4.03;;;-0.10;99.90;;;;;;5033565;28;20287;-78
2021/04/15 05:27:33;;;;;;;7.73;4.07;;;0.00;99.90;;;;;;5019776;28;20200;-78
2021/04/15 05:30:26;;;;;;;9.97;4.20;;;-0.10;99.90;;;;;;5022526;28;20227;-78
2021/04/15 05:32:56;;;;;;;8.57;4.30;;;0.00;99.90;;;;;;5029350;28;20197;-78
2021/04/15 05:35:29;;;;;;;9.37;4.60;;;0.00;99.90;;;;;;5012351;28;20291;-78
2021/04/15 05:37:56;;;;;;;7.20;4.20;;;0.00;99.90;;;;;;5012189;28;20291;-78
2021/04/15 05:40:22;;;;;;;7.77;3.90;;;0.10;99.90;;;;;;5027027;28;20297;-78
2021/04/15 05:42:52;;;;;;;8.90;4.23;;;0.10;99.90;;;;;;5018116;28;20306;-78
2021/04/15 05:45:23;;;;;;;7.23;4.07;;;0.10;99.90;;;;;;5031454;28;20238;-77
2021/04/15 05:47:56;;;;;;;9.07;4.60;;;0.30;99.90;;;;;;5029005;28;20204;-77
2021/04/15 05:50:28;;;;;;;7.87;4.57;;;0.30;99.90;;;;;;5020446;28;20621;-76
2021/04/15 05:52:59;;;;;;;8.87;4.53;;;0.30;99.90;;;;;;5030089;28;20203;-77
2021/04/15 05:55:31;;;;;;;9.00;4.57;;;0.40;99.90;;;;;;5023652;28;20283;-77
2021/04/15 05:58:04;;;;;;;10.13;4.77;;;0.70;99.90;;;;;;5023445;28;20288;-77
2021/04/15 06:00:37;;;;;;;9.33;4.60;;;1.00;99.90;;;;;;5021025;28;20330;-77
2021/04/15 06:03:24;;;;;;;10.67;4.70;;;1.30;99.90;;;;;;5027799;28;20244;-77
2021/04/15 06:05:58;;;;;;;8.63;3.97;;;1.50;99.90;;;;;;5029207;28;20751;-77
2021/04/15 06:08:28;;;;;;;6.73;4.20;;;2.00;99.90;;;;;;5020471;28;20288;-76
2021/04/15 06:11:05;;;;;;;7.07;4.47;;;2.40;99.90;;;;;;5029358;28;20288;-77
2021/04/15 06:13:41;;;;;;;7.53;4.07;;;2.60;99.90;;;;;;5027468;28;20217;-77
2021/04/15 06:16:11;;;;;;;6.40;4.30;;;3.10;99.90;;;;;;5033234;28;20204;-77
2021/04/15 06:18:42;;;;;;;7.00;4.10;;;3.30;99.90;;;;;;5027421;28;20313;-77
2021/04/15 06:21:14;;;;;;;7.03;4.57;;;3.60;99.90;;;;;;5027872;28;20307;-77
2021/04/15 06:23:43;;;;;;;6.57;4.37;;;3.80;99.90;;;;;;5030121;28;20244;-77
2021/04/15 06:26:19;;;;;;;6.90;4.07;;;4.00;99.90;;;;;;5033200;28;20280;-78
2021/04/15 06:28:47;;;;;;;6.70;4.50;;;4.30;99.90;;;;;;5015539;28;20391;-77
2021/04/15 06:31:22;;;;;;;8.00;4.73;;;4.40;99.90;;;;;;5021296;28;20325;-77
2021/04/15 06:33:51;;;;;;;6.20;4.97;;;4.30;99.90;;;;;;5023571;28;20281;-77
2021/04/15 06:36:28;;;;;;;7.30;4.60;;;4.90;99.90;;;;;;5030288;28;20230;-77
2021/04/15 06:39:01;;;;;;;6.50;4.83;;;4.80;99.90;;;;;;5033951;28;20260;-77
2021/04/15 06:42:01;;;;;;;7.17;4.80;;;4.80;99.90;;;;;;5024612;28;20278;-77
2021/04/15 06:45:18;;;;;;;8.77;5.43;;;5.40;99.90;;;;;;5023836;28;20290;-77
2021/04/15 06:48:19;;;;;;;9.30;5.43;;;5.50;99.90;;;;;;4973485;28;20209;-78
2021/04/15 06:51:08;;;;;;;7.37;5.37;;;6.00;99.90;;;;;;4963414;28;20229;-77
2021/04/15 06:53:48;;;;;;;10.13;5.80;;;5.10;99.90;;;;;;4978350;28;20237;-80
2021/04/15 06:56:24;;;;;;;10.20;6.20;;;5.60;99.90;;;;;;4986172;28;20285;-80
2021/04/15 06:59:04;;;;;;;10.33;6.10;;;6.00;99.90;;;;;;4992244;28;20215;-80
2021/04/15 07:01:52;;;;;;;9.87;6.17;;;6.40;99.90;;;;;;4983255;28;20245;-79
2021/04/15 07:04:22;;;;;;;11.80;6.80;;;6.30;99.90;;;;;;4983506;28;20270;-80
2021/04/15 07:06:56;;;;;;;10.30;7.00;;;6.40;99.90;;;;;;4982950;28;20695;-80
2021/04/15 07:09:56;;;;;;;9.77;7.00;;;6.50;99.90;;;;;;4986510;28;20704;-80
2021/04/15 07:12:58;;;;;;;10.37;7.00;;;6.70;99.90;;;;;;4982266;28;20911;-80
2021/04/15 07:15:44;;;;;;;11.07;7.77;;;6.60;99.90;;;;;;4982598;28;20204;-80
2021/04/15 07:18:51;;;;;;;9.83;7.80;;;7.00;99.90;;;;;;4999184;28;20224;-80
2021/04/15 07:21:57;;;;;;;10.80;8.13;;;7.50;99.90;;;;;;5025786;28;20259;-80
2021/04/15 07:25:00;;;;;;;9.37;7.47;;;7.40;99.90;;;;;;4945177;29;20256;-80
2021/04/15 07:27:52;;;;;;;10.10;8.23;;;8.40;99.90;;;;;;4951880;29;20300;-81
2021/04/15 07:30:55;;;;;;;13.73;9.33;;;8.90;99.90;;;;;;4894252;29;20257;-82
2021/04/15 07:33:48;;;;;;;12.27;9.60;;;8.10;99.90;;;;;;4894253;29;20218;-81
2021/04/15 07:36:44;;;;;;;11.93;10.00;;;7.80;99.90;;;;;;4895107;29;20208;-81
2021/04/15 07:39:44;;;;;;;11.17;9.50;;;7.70;99.90;;;;;;4891684;29;20211;-81
2021/04/15 07:42:30;;;;;;;11.67;10.07;;;8.40;99.90;;;;;;4835466;29;20242;-81
2021/04/15 07:45:01;;;;;;;12.83;10.37;;;9.30;99.90;;;;;;4837570;29;20202;-81
2021/04/15 07:48:17;;;;;;;12.70;10.23;;;8.40;99.90;;;;;;4838635;29;20215;-80
2021/04/15 07:51:21;;;;;;;13.50;11.23;;;8.70;99.90;;;;;;4836481;29;20203;-80
2021/04/15 07:54:05;;;;;;;13.40;11.00;;;8.70;99.90;;;;;;4838047;29;20773;-80
2021/04/15 07:57:02;;;;;;;13.60;10.97;;;9.20;99.90;;;;;;4837939;29;20200;-81
2021/04/15 07:59:54;;;;;;;15.13;12.07;;;9.40;99.90;;;;;;4835056;29;20229;-80
2021/04/15 08:02:50;;;;;;;15.70;12.33;;;9.80;99.90;;;;;;4839986;29;20650;-79
2021/04/15 08:05:33;;;;;;;16.50;12.07;;;9.00;99.90;;;;;;4843424;29;20270;-80
2021/04/15 08:08:37;;;;;;;15.43;12.53;;;8.80;99.90;;;;;;4901735;29;20256;-80
2021/04/15 08:11:38;;;;;;;16.40;13.80;;;9.70;99.90;;;;;;4929348;29;20203;-79
2021/04/15 08:14:29;;;;;;;14.97;13.40;;;9.80;99.90;;;;;;4924497;29;20763;-80
2021/04/15 08:17:12;;;;;;;14.67;13.10;;;9.60;99.90;;;;;;4918378;29;20216;-80
2021/04/15 08:20:17;;;;;;;16.87;13.60;;;10.20;99.90;;;;;;5000430;28;20275;-79
2021/04/15 08:23:04;;;;;;;16.07;13.70;;;9.70;99.90;;;;;;5021534;28;20225;-79
2021/04/15 08:25:42;;;;;;;17.83;13.93;;;10.30;99.90;;;;;;5019595;28;20204;-80
2021/04/15 08:28:41;;;;;;;16.13;13.73;;;10.30;99.90;;;;;;5023585;28;20710;-80
2021/04/15 08:31:16;;;;;;;15.27;13.23;;;10.60;99.90;;;;;;5023378;28;20680;-80
2021/04/15 08:33:56;;;;;;;16.20;14.33;;;10.50;99.90;;;;;;5019696;28;20220;-79
2021/04/15 08:37:11;;;;;;;15.87;13.83;;;10.10;99.90;;;;;;5020685;28;20197;-79
2021/04/15 08:39:51;;;;;;;17.17;13.63;;;10.90;99.90;;;;;;4942671;28;20199;-80
2021/04/15 08:42:32;;;;;;;15.87;13.83;;;11.40;99.90;;;;;;4945566;29;20250;-80
2021/04/15 08:45:21;;;;;;;17.93;13.00;;;11.50;99.90;;;;;;4942320;28;20383;-80
2021/04/15 08:48:11;;;;;;;17.00;13.50;;;11.70;99.90;;;;;;4942122;28;20226;-80
2021/04/15 08:50:59;;;;;;;15.67;13.97;;;11.90;99.90;;;;;;4943134;29;20367;-80
2021/04/15 08:54:01;;;;;;;15.27;12.63;;;12.20;99.90;;;;;;4951547;28;20294;-81
2021/04/15 08:56:32;;;;;;;15.60;13.70;;;12.60;99.90;;;;;;4946406;28;20203;-80
2021/04/15 08:59:17;;;;;;;17.23;12.93;;;12.20;99.90;;;;;;4941411;28;20211;-81
2021/04/15 09:01:51;;;;;;;18.23;13.93;;;12.30;99.90;;;;;;4944081;28;20267;-79
2021/04/15 09:04:21;;;;;;;14.43;12.30;;;12.40;99.90;;;;;;4946359;29;20230;-79
2021/04/15 09:06:57;;;;;;;19.57;14.20;;;13.30;99.90;;;;;;4948062;28;20207;-80
2021/04/15 09:09:36;;;;;;;15.67;12.83;;;12.30;99.90;;;;;;4948484;29;20198;-80
2021/04/15 09:12:24;;;;;;;16.43;13.70;;;12.30;99.90;;;;;;4942646;29;20666;-79
2021/04/15 09:15:05;;;;;;;15.30;13.60;;;13.10;99.90;;;;;;5012901;28;20205;-80
2021/04/15 09:17:34;;;;;;;16.03;13.53;;;12.60;99.90;;;;;;5026669;28;20236;-80
2021/04/15 09:20:08;;;;;;;16.20;13.77;;;13.70;99.90;;;;;;5031694;28;20239;-80
2021/04/15 09:23:03;;;;;;;17.20;15.40;;;13.40;99.90;;;;;;5019995;28;20230;-79
2021/04/15 09:25:40;;;;;;;15.93;14.10;;;14.00;99.90;;;;;;5025265;28;20763;-80
2021/04/15 09:28:09;;;;;;;16.77;14.90;;;13.00;99.90;;;;;;5023301;28;20231;-81
2021/04/15 09:30:49;;;;;;;15.67;13.97;;;13.20;99.90;;;;;;5019808;28;20266;-81
2021/04/15 09:33:24;;;;;;;16.60;14.80;;;12.90;99.90;;;;;;5021168;28;20295;-81
2021/04/15 09:36:05;;;;;;;16.20;14.50;;;12.80;99.90;;;;;;5035174;28;20687;-81
2021/04/15 09:39:20;;;;;;;16.87;14.20;;;13.70;99.90;;;;;;5020313;28;20339;-79
2021/04/15 09:42:08;;;;;;;16.43;14.50;;;13.80;99.90;;;;;;5017984;28;20653;-81
2021/04/15 09:44:49;;;;;;;16.70;14.33;;;13.70;99.90;;;;;;5019656;28;20236;-81
2021/04/15 09:47:32;;;;;;;16.20;14.00;;;14.00;99.90;;;;;;5025589;28;20286;-79
2021/04/15 09:50:10;;;;;;;18.73;15.03;;;13.40;99.90;;;;;;5032574;28;20235;-80
2021/04/15 09:53:28;;;;;;;16.57;13.67;;;14.50;99.90;;;;;;5024373;28;20273;-80
2021/04/15 09:56:09;;;;;;;16.07;14.20;;;14.70;99.90;;;;;;4972856;28;20202;-82
2021/04/15 09:58:44;;;;;;;17.67;14.27;;;14.30;99.90;;;;;;4967498;28;20202;-81
2021/04/15 10:01:16;;;;;;;16.57;14.10;;;13.80;99.90;;;;;;4972521;28;20225;-82
2021/04/15 10:03:51;;;;;;;16.57;14.60;;;14.70;99.90;;;;;;4966151;28;20250;-81
2021/04/15 10:06:23;;;;;;;20.40;16.80;;;14.70;99.90;;;;;;4962861;28;20225;-81
2021/04/15 10:09:22;;;;;;;17.43;14.70;;;15.50;99.90;;;;;;4972894;28;20640;-81
2021/04/15 10:12:02;;;;;;;16.67;14.77;;;13.90;99.90;;;;;;4971757;28;20657;-81
2021/04/15 10:14:46;;;;;;;16.50;14.50;;;14.90;99.90;;;;;;4971799;28;20309;-81
2021/04/15 10:17:28;;;;;;;16.97;15.13;;;13.70;99.90;;;;;;4972892;28;20253;-81
2021/04/15 10:20:19;;;;;;;18.27;16.17;;;13.80;99.90;;;;;;4969453;28;20289;-81
2021/04/15 10:22:58;;;;;;;18.87;16.10;;;12.30;99.90;;;;;;4969949;28;20390;-81
2021/04/15 10:25:30;;;;;;;18.70;16.80;;;11.90;99.90;;;;;;4972858;28;20238;-81
2021/04/15 10:28:16;;;;;;;18.97;16.93;;;11.10;99.90;;;;;;5032273;28;20208;-81
2021/04/15 10:31:21;;;;;;;21.37;17.80;;;11.10;99.90;;;;;;5042145;28;20287;-80
2021/04/15 10:34:16;;;;;;;20.37;18.17;;;10.70;99.90;;;;;;5022964;28;20235;-81
2021/04/15 10:36:55;;;;;;;20.50;18.30;;;12.80;99.90;;;;;;5026411;28;20266;-81
2021/04/15 10:39:36;;;;;;;21.60;19.20;;;11.50;99.90;;;;;;5032396;28;20208;-79
2021/04/15 10:42:52;;;;;;;21.73;19.43;;;13.30;99.90;;;;;;5021169;28;20312;-83
2021/04/15 10:45:32;;;;;;;21.80;19.60;;;15.70;99.90;;;;;;5001270;28;20640;-80
2021/04/15 10:48:20;;;;;;;23.60;20.60;;;13.10;99.90;;;;;;5025325;28;20279;-80
2021/04/15 10:50:54;;;;;;;24.70;21.57;;;12.40;99.90;;;;;;5024142;28;20193;-80
2021/04/15 10:53:51;;;;;;;22.77;20.40;;;11.60;99.90;;;;;;5029602;28;20224;-78
2021/04/15 10:56:45;;;;;;;23.07;20.57;;;11.00;99.90;;;;;;5014691;28;20565;-81
2021/04/15 10:59:37;;;;;;;22.13;19.83;;;12.00;99.90;;;;;;5022553;28;20207;-80
2021/04/15 11:02:22;;;;;;;23.20;20.73;;;12.40;99.90;;;;;;5031172;28;20256;-81
2021/04/15 11:04:50;;;;;;;22.77;20.20;;;12.60;99.90;;;;;;5014925;28;20312;-81
2021/04/15 11:07:21;;;;;;;23.90;21.30;;;12.50;99.90;;;;;;5024906;28;20296;-81
2021/04/15 11:09:49;;;;;;;24.60;22.00;;;11.80;99.90;;;;;;5022311;28;20221;-81
2021/04/15 11:12:23;;;;;;;23.70;21.20;;;11.20;99.90;;;;;;5015211;28;20263;-79
2021/04/15 11:15:13;;;;;;;23.03;20.67;;;11.20;99.90;;;;;;5037611;28;20207;-80
2021/04/15 11:17:42;;;;;;;23.53;20.80;;;11.90;99.90;;;;;;5030272;28;20220;-80
2021/04/15 11:20:22;;;;;;;24.53;20.73;;;12.10;99.90;;;;;;5021596;28;20200;-80
2021/04/15 11:23:02;;;;;;;22.97;20.47;;;11.40;99.90;;;;;;5018266;28;20723;-80
2021/04/15 11:25:33;;;;;;;23.67;21.00;;;10.60;99.90;;;;;;5025422;28;20230;-81
2021/04/15 11:28:04;;;;;;;24.37;21.47;;;11.30;99.90;;;;;;5023979;28;20234;-81
2021/04/15 11:30:34;;;;;;;24.07;21.60;;;11.50;99.90;;;;;;5022720;28;20244;-83
2021/04/15 11:33:01;;;;;;;23.97;21.40;;;11.30;99.90;;;;;;5034036;28;20279;-81
2021/04/15 11:35:28;;;;;;;22.93;20.53;;;11.10;99.90;;;;;;5025246;28;20572;-80
2021/04/15 11:38:09;;;;;;;24.23;20.30;;;10.60;99.90;;;;;;5024848;28;20215;-81
2021/04/15 11:40:38;;;;;;;25.67;20.70;;;10.80;99.90;;;;;;5026833;28;20297;-81
2021/04/15 11:43:33;;;;;;;23.60;19.47;;;11.50;99.90;;;;;;5021984;28;20231;-82
2021/04/15 11:46:17;;;;;;;21.10;18.90;;;12.40;99.90;;;;;;5013062;28;20205;-80
2021/04/15 11:48:49;;;;;;;22.20;19.83;;;12.50;99.90;;;;;;5019836;28;20306;-81
2021/04/15 11:51:20;;;;;;;23.60;19.87;;;12.10;99.90;;;;;;5018951;28;20234;-80
2021/04/15 12:00:27;;;;;;;21.27;19.17;;;13.90;99.90;;;;;;5020545;28;20239;-80
2021/04/15 12:03:21;;;;;;;22.47;20.13;;;12.80;99.90;;;;;;5022945;28;20217;-82
2021/04/15 12:05:56;;;;;;;22.10;19.80;;;11.40;99.90;;;;;;5020208;28;20291;-80
2021/04/15 12:08:31;;;;;;;22.77;20.37;;;10.90;99.90;;;;;;5021851;28;20207;-82
2021/04/15 12:11:47;;;;;;;22.13;19.83;;;10.90;99.90;;;;;;5021897;28;20204;-81
2021/04/15 12:14:31;;;;;;;21.33;19.13;;;11.10;99.90;;;;;;4997979;28;20227;-81
2021/04/15 12:17:08;;;;;;;23.23;19.47;;;13.60;99.90;;;;;;5022176;28;20243;-81
2021/04/15 12:19:54;;;;;;;19.80;17.80;;;14.70;98.60;;;;;;5026339;28;20220;-81
2021/04/15 12:22:37;;;;;;;18.50;16.60;;;14.50;97.50;;;;;;5020555;28;20213;-81
2021/04/15 12:25:16;;;;;;;19.13;17.13;;;13.80;95.50;;;;;;5029609;28;20296;-82
2021/04/15 12:27:47;;;;;;;18.13;16.23;;;14.50;95.80;;;;;;5025065;28;20203;-83
2021/04/15 12:30:24;;;;;;;17.47;15.77;;;15.50;96.20;;;;;;5018990;28;20240;-80
2021/04/15 12:32:58;;;;;;;17.60;15.63;;;16.20;91.00;;;;;;5023560;28;20192;-82
2021/04/15 12:35:32;;;;;;;19.20;16.20;;;14.60;91.30;;;;;;5021783;28;20698;-82
2021/04/15 12:38:05;;;;;;;17.87;16.07;;;14.40;94.40;;;;;;5022761;28;20751;-83
2021/04/15 12:40:36;;;;;;;17.37;15.67;;;13.80;95.10;;;;;;5020504;28;20197;-85
2021/04/15 12:43:09;;;;;;;17.17;15.47;;;13.50;94.00;;;;;;5024018;28;20220;-83
2021/04/15 12:45:40;;;;;;;16.53;14.93;;;12.70;97.10;;;;;;5023009;28;20205;-83
2021/04/15 12:48:11;;;;;;;16.60;14.80;;;12.10;95.10;;;;;;5021886;28;20204;-85
2021/04/15 12:50:37;;;;;;;16.27;14.57;;;12.00;95.10;;;;;;5028652;28;20204;-85
2021/04/15 12:53:07;;;;;;;16.90;15.10;;;13.10;96.10;;;;;;5025171;28;20193;-84
2021/04/15 12:55:35;;;;;;;16.30;14.73;;;14.60;92.20;;;;;;5026534;28;20192;-84
2021/04/15 12:58:03;;;;;;;15.67;14.00;;;15.10;94.10;;;;;;5028175;28;20228;-83
2021/04/15 13:00:38;;;;;;;15.70;14.10;;;14.40;92.40;;;;;;5021560;28;20615;-85
2021/04/15 13:03:19;;;;;;;14.60;13.20;;;14.00;91.50;;;;;;5025853;28;21033;-85
2021/04/15 13:06:05;;;;;;;14.47;12.97;;;14.40;91.80;;;;;;5028754;28;20696;-84
2021/04/15 13:08:42;;;;;;;15.73;13.07;;;15.00;90.00;;;;;;5024390;28;20208;-84
2021/04/15 13:11:39;;;;;;;14.30;12.77;;;15.10;87.90;;;;;;5024175;28;20272;-84
2021/04/15 13:14:36;;;;;;;13.50;12.10;;;12.90;92.00;;;;;;5021968;28;20692;-85
2021/04/15 13:17:03;;;;;;;12.97;11.67;;;13.70;92.80;;;;;;5020107;28;20208;-85
2021/04/15 13:19:39;;;;;;;13.20;11.80;;;14.50;91.20;;;;;;5020323;28;20307;-84
2021/04/15 13:22:28;;;;;;;11.87;10.67;;;15.50;90.00;;;;;;5019593;28;20314;-84
2021/04/15 13:25:20;;;;;;;11.50;10.23;;;15.10;91.00;;;;;;5024672;28;20287;-84
2021/04/15 13:28:11;;;;;;;11.20;10.00;;;14.70;92.00;;;;;;5025297;28;20204;-83
2021/04/15 13:31:00;;;;;;;12.33;10.03;;;14.60;93.40;;;;;;5025163;28;20289;-82
2021/04/15 13:34:01;;;;;;;11.17;9.50;;;13.50;90.60;;;;;;5029424;28;20220;-83
2021/04/15 13:36:29;;;;;;;11.73;8.90;;;12.80;93.20;;;;;;5018583;28;20232;-83
2021/04/15 13:39:04;;;;;;;9.87;8.67;;;12.10;94.30;;;;;;5030051;28;20254;-82
2021/04/15 13:41:56;;;;;;;9.10;8.20;;;12.50;93.70;;;;;;5023441;28;20211;-83
2021/04/15 13:44:56;;;;;;;12.33;8.43;;;14.50;94.20;;;;;;5020820;28;20229;-83